sensor_id;sensor_type;location;lat;lon;timestamp;pressure;altitude;pressure_sealevel;temperature;humidity
17950;BME280;9100;48.700;9.316;2023-02-03T00:00:05;99007.6;;;6.42;100
17950;BME280;9100;48.700;9.316;2023-02-03T00:00:34;98993.4;;;6.4;100
17950;BME280;9100;48.700;9.316;2023-02-03T00:01:04;99002.5;;;6.42;100
17950;BME280;9100;48.700;9.316;2023-02-03T00:02:03;99000;;;6.42;100
17950;BME280;9100;48.700;9.316;2023-02-03T00:03:03;99001.59999999999;;;6.43;100
17950;BME280;9100;48.700;9.316;2023-02-03T00:04:04;98985.79999999999;;;6.4;100
17950;BME280;9100;48.700;9.316;2023-02-03T00:05:04;99001.9;;;6.4;100
17950;BME280;9100;48.700;9.316;2023-02-03T00:05:35;99004.5;;;6.39;100
17950;BME280;9100;48.700;9.316;2023-02-03T00:06:04;99005.2;;;6.41;100
17950;BME280;9100;48.700;9.316;2023-02-03T00:07:04;98998.6;;;6.38;100
17950;BME280;9100;48.700;9.316;2023-02-03T00:08:04;98996;;;6.4;100
17950;BME280;9100;48.700;9.316;2023-02-03T00:09:04;98995.2;;;6.39;100
17950;BME280;9100;48.700;9.316;2023-02-03T00:10:04;98768.5;;;4.97;100
17950;BME280;9100;48.700;9.316;2023-02-03T00:10:36;98985.1;;;6.38;100
17950;BME280;9100;48.700;9.316;2023-02-03T00:11:04;98983.4;;;6.38;100
17950;BME280;9100;48.700;9.316;2023-02-03T00:12:04;98989.3;;;6.39;100
17950;BME280;9100;48.700;9.316;2023-02-03T00:13:04;98993.4;;;6.4;100
17950;BME280;9100;48.700;9.316;2023-02-03T00:14:04;98980.8;;;6.38;100
17950;BME280;9100;48.700;9.316;2023-02-03T00:15:04;98980.8;;;6.38;100
17950;BME280;9100;48.700;9.316;2023-02-03T00:15:34;98973.2;;;6.38;100
17950;BME280;9100;48.700;9.316;2023-02-03T00:16:04;98978.3;;;6.38;100
17950;BME280;9100;48.700;9.316;2023-02-03T00:17:04;98971.6;;;6.37;100
17950;BME280;9100;48.700;9.316;2023-02-03T00:18:04;98970.7;;;6.38;100
17950;BME280;9100;48.700;9.316;2023-02-03T00:19:04;98973.29999999999;;;6.37;100
17950;BME280;9100;48.700;9.316;2023-02-03T00:20:04;98973.5;;;6.35;100
17950;BME280;9100;48.700;9.316;2023-02-03T00:20:34;98973.5;;;6.35;100
17950;BME280;9100;48.700;9.316;2023-02-03T00:21:04;98978.5;;;6.35;100
17950;BME280;9100;48.700;9.316;2023-02-03T00:22:04;98969.3;;;6.34;100
17950;BME280;9100;48.700;9.316;2023-02-03T00:23:05;98970;;;6.36;100
17950;BME280;9100;48.700;9.316;2023-02-03T00:24:04;98973.5;;;6.35;100
17950;BME280;9100;48.700;9.316;2023-02-03T00:25:05;98984.40000000001;;;6.36;100
17950;BME280;9100;48.700;9.316;2023-02-03T00:25:34;98976;;;6.35;100
17950;BME280;9100;48.700;9.316;2023-02-03T00:26:05;98974.3;;;6.36;100
17950;BME280;9100;48.700;9.316;2023-02-03T00:27:03;98973.5;;;6.35;100
17950;BME280;9100;48.700;9.316;2023-02-03T00:28:04;98970.9;;;6.35;100
17950;BME280;9100;48.700;9.316;2023-02-03T00:29:04;98970.9;;;6.35;100
17950;BME280;9100;48.700;9.316;2023-02-03T00:30:04;98970;;;6.36;100
17950;BME280;9100;48.700;9.316;2023-02-03T00:30:35;98975.9;;;6.37;100
17950;BME280;9100;48.700;9.316;2023-02-03T00:31:04;98979.2;;;6.37;100
17950;BME280;9100;48.700;9.316;2023-02-03T00:32:04;98966.5;;;6.37;100
17950;BME280;9100;48.700;9.316;2023-02-03T00:33:03;98973.2;;;6.38;100
17950;BME280;9100;48.700;9.316;2023-02-03T00:34:04;98969.8;;;6.39;100
17950;BME280;9100;48.700;9.316;2023-02-03T00:35:04;98973.2;;;6.38;100
17950;BME280;9100;48.700;9.316;2023-02-03T00:35:36;98976.70000000001;;;6.37;100
17950;BME280;9100;48.700;9.316;2023-02-03T00:36:04;98974;;;6.39;100
17950;BME280;9100;48.700;9.316;2023-02-03T00:37:03;98974.1;;;6.37;100
17950;BME280;9100;48.700;9.316;2023-02-03T00:38:04;98976.70000000001;;;6.37;100
17950;BME280;9100;48.700;9.316;2023-02-03T00:39:04;98970;;;6.36;100
17950;BME280;9100;48.700;9.316;2023-02-03T00:40:04;98973.5;;;6.35;100
17950;BME280;9100;48.700;9.316;2023-02-03T00:40:35;98974.40000000001;;;6.34;100
17950;BME280;9100;48.700;9.316;2023-02-03T00:41:04;98970.8;;;6.37;100
17950;BME280;9100;48.700;9.316;2023-02-03T00:42:04;98968.4;;;6.35;100
17950;BME280;9100;48.700;9.316;2023-02-03T00:43:04;98963.4;;;6.33;100
17950;BME280;9100;48.700;9.316;2023-02-03T00:44:04;98969;;;6.37;100
17950;BME280;9100;48.700;9.316;2023-02-03T00:45:04;98969.2;;;6.36;100
17950;BME280;9100;48.700;9.316;2023-02-03T00:45:34;98969.3;;;6.34;100
17950;BME280;9100;48.700;9.316;2023-02-03T00:46:04;98966.7;;;6.34;100
17950;BME280;9100;48.700;9.316;2023-02-03T00:47:04;98979.5;;;6.34;100
17950;BME280;9100;48.700;9.316;2023-02-03T00:48:04;98976.09999999999;;;6.33;100
17950;BME280;9100;48.700;9.316;2023-02-03T00:49:04;98980.5;;;6.31;100
17950;BME280;9100;48.700;9.316;2023-02-03T00:50:04;98974.59999999999;;;6.31;100
17950;BME280;9100;48.700;9.316;2023-02-03T00:50:34;98975.5;;;6.3;100
17950;BME280;9100;48.700;9.316;2023-02-03T00:51:05;98982.2;;;6.31;100
17950;BME280;9100;48.700;9.316;2023-02-03T00:52:04;98981.4;;;6.3;100
17950;BME280;9100;48.700;9.316;2023-02-03T00:53:04;98993.2;;;6.31;100
17950;BME280;9100;48.700;9.316;2023-02-03T00:54:03;98995.9;;;6.3;100
17950;BME280;9100;48.700;9.316;2023-02-03T00:55:04;98988.2;;;6.3;100
17950;BME280;9100;48.700;9.316;2023-02-03T00:55:34;98995.8;;;6.31;100
17950;BME280;9100;48.700;9.316;2023-02-03T00:56:04;98994.8;;;6.32;100
17950;BME280;9100;48.700;9.316;2023-02-03T00:57:04;99000.7;;;6.33;100
17950;BME280;9100;48.700;9.316;2023-02-03T00:58:04;98999;;;6.33;100
17950;BME280;9100;48.700;9.316;2023-02-03T00:59:03;99009.1;;;6.33;100
17950;BME280;9100;48.700;9.316;2023-02-03T01:00:04;99005;;;6.32;100
17950;BME280;9100;48.700;9.316;2023-02-03T01:00:34;99003.2;;;6.33;100
17950;BME280;9100;48.700;9.316;2023-02-03T01:01:04;99002.3;;;6.34;100
17950;BME280;9100;48.700;9.316;2023-02-03T01:02:04;99014.20000000001;;;6.33;100
17950;BME280;9100;48.700;9.316;2023-02-03T01:03:04;99019.2;;;6.35;100
17950;BME280;9100;48.700;9.316;2023-02-03T01:04:04;99019.2;;;6.35;100
17950;BME280;9100;48.700;9.316;2023-02-03T01:05:04;99019.2;;;6.35;100
17950;BME280;9100;48.700;9.316;2023-02-03T01:05:35;99019.2;;;6.35;100
17950;BME280;9100;48.700;9.316;2023-02-03T01:06:07;99014.9;;;6.36;100
17950;BME280;9100;48.700;9.316;2023-02-03T01:07:04;99014.09999999999;;;6.35;100
17950;BME280;9100;48.700;9.316;2023-02-03T01:08:04;99008.3;;;6.33;100
17950;BME280;9100;48.700;9.316;2023-02-03T01:09:04;99012.59999999999;;;6.32;100
17950;BME280;9100;48.700;9.316;2023-02-03T01:10:04;99009.40000000001;;;6.3;100
17950;BME280;9100;48.700;9.316;2023-02-03T01:10:36;99010.29999999999;;;6.29;100
17950;BME280;9100;48.700;9.316;2023-02-03T01:11:05;99016.09999999999;;;6.31;100
17950;BME280;9100;48.700;9.316;2023-02-03T01:12:04;99013.4;;;6.33;100
17950;BME280;9100;48.700;9.316;2023-02-03T01:13:04;99013.4;;;6.33;100
17950;BME280;9100;48.700;9.316;2023-02-03T01:14:03;99021;;;6.33;100
17950;BME280;9100;48.700;9.316;2023-02-03T01:15:04;99012.59999999999;;;6.32;100
17950;BME280;9100;48.700;9.316;2023-02-03T01:15:36;99010.90000000001;;;6.33;100
17950;BME280;9100;48.700;9.316;2023-02-03T01:16:06;99019.2;;;6.35;100
17950;BME280;9100;48.700;9.316;2023-02-03T01:17:04;99014.09999999999;;;6.35;100
17950;BME280;9100;48.700;9.316;2023-02-03T01:18:04;99015.7;;;6.36;100
17950;BME280;9100;48.700;9.316;2023-02-03T01:19:04;99020;;;6.36;100
17950;BME280;9100;48.700;9.316;2023-02-03T01:20:04;99014.09999999999;;;6.35;100
17950;BME280;9100;48.700;9.316;2023-02-03T01:20:34;99017.5;;;6.36;100
17950;BME280;9100;48.700;9.316;2023-02-03T01:21:04;99017.3;;;6.37;100
17950;BME280;9100;48.700;9.316;2023-02-03T01:22:04;99012.2;;;6.37;100
17950;BME280;9100;48.700;9.316;2023-02-03T01:23:03;99010.6;;;6.36;100
17950;BME280;9100;48.700;9.316;2023-02-03T01:24:04;98995.3;;;6.38;100
17950;BME280;9100;48.700;9.316;2023-02-03T01:25:05;98984.40000000001;;;6.36;100
17950;BME280;9100;48.700;9.316;2023-02-03T01:25:34;98981.1;;;6.35;100
17950;BME280;9100;48.700;9.316;2023-02-03T01:26:04;98976.8;;;6.36;100
17950;BME280;9100;48.700;9.316;2023-02-03T01:27:03;98969.3;;;6.34;100
17950;BME280;9100;48.700;9.316;2023-02-03T01:28:04;98956.6;;;6.34;100
17950;BME280;9100;48.700;9.316;2023-02-03T01:29:04;98955.1;;;6.31;100
17950;BME280;9100;48.700;9.316;2023-02-03T01:30:04;98961.1;;;6.3;100
17950;BME280;9100;48.700;9.316;2023-02-03T01:30:35;98957.8;;;6.3;100
17950;BME280;9100;48.700;9.316;2023-02-03T01:31:07;98956;;;6.3;100
17950;BME280;9100;48.700;9.316;2023-02-03T01:32:04;98956.8;;;6.31;100
17950;BME280;9100;48.700;9.316;2023-02-03T01:33:04;98960;;;6.33;100
17950;BME280;9100;48.700;9.316;2023-02-03T01:34:04;98959.3;;;6.32;100
17950;BME280;9100;48.700;9.316;2023-02-03T01:35:04;98961.90000000001;;;6.31;100
17950;BME280;9100;48.700;9.316;2023-02-03T01:35:34;98963.8;;;6.29;100
17950;BME280;9100;48.700;9.316;2023-02-03T01:36:04;98963.8;;;6.29;100
17950;BME280;9100;48.700;9.316;2023-02-03T01:37:04;98970.5;;;6.3;100
17950;BME280;9100;48.700;9.316;2023-02-03T01:38:04;98976.3;;;6.3;100
17950;BME280;9100;48.700;9.316;2023-02-03T01:39:04;98981.4;;;6.3;100
17950;BME280;9100;48.700;9.316;2023-02-03T01:40:04;98975.3;;;6.33;100
17950;BME280;9100;48.700;9.316;2023-02-03T01:40:40;98972.90000000001;;;6.31;100
17950;BME280;9100;48.700;9.316;2023-02-03T01:41:05;98971;;;6.33;100
17950;BME280;9100;48.700;9.316;2023-02-03T01:42:04;98969.5;;;6.31;100
17950;BME280;9100;48.700;9.316;2023-02-03T01:43:04;98966.2;;;6.3;100
17950;BME280;9100;48.700;9.316;2023-02-03T01:44:33;98964.5;;;6.31;100
17950;BME280;9100;48.700;9.316;2023-02-03T01:45:04;98968.7;;;6.3;100
17950;BME280;9100;48.700;9.316;2023-02-03T01:45:34;98961.90000000001;;;6.31;100
17950;BME280;9100;48.700;9.316;2023-02-03T01:46:05;98969.5;;;6.31;100
17950;BME280;9100;48.700;9.316;2023-02-03T01:47:04;98967.8;;;6.31;100
17950;BME280;9100;48.700;9.316;2023-02-03T01:48:04;98963.5;;;6.32;100
17950;BME280;9100;48.700;9.316;2023-02-03T01:49:06;98957.8;;;6.3;100
17950;BME280;9100;48.700;9.316;2023-02-03T01:50:06;98956.8;;;6.31;100
17950;BME280;9100;48.700;9.316;2023-02-03T01:50:35;98951.09999999999;;;6.29;100
17950;BME280;9100;48.700;9.316;2023-02-03T01:51:04;98953.59999999999;;;6.29;100
17950;BME280;9100;48.700;9.316;2023-02-03T01:52:04;98951.09999999999;;;6.29;100
17950;BME280;9100;48.700;9.316;2023-02-03T01:53:04;98958.7;;;6.29;100
17950;BME280;9100;48.700;9.316;2023-02-03T01:54:04;98953.59999999999;;;6.29;100
17950;BME280;9100;48.700;9.316;2023-02-03T01:55:04;98956.9;;;6.29;100
17950;BME280;9100;48.700;9.316;2023-02-03T01:55:36;98950.3;;;6.28;100
17950;BME280;9100;48.700;9.316;2023-02-03T01:56:04;98946.8;;;6.29;100
17950;BME280;9100;48.700;9.316;2023-02-03T01:57:05;98943.5;;;6.29;100
17950;BME280;9100;48.700;9.316;2023-02-03T01:58:05;98955.2;;;6.3;100
17950;BME280;9100;48.700;9.316;2023-02-03T01:59:04;98957.6;;;6.31;100
17950;BME280;9100;48.700;9.316;2023-02-03T02:00:04;98953.5;;;6.3;100
17950;BME280;9100;48.700;9.316;2023-02-03T02:00:35;98947.6;;;6.3;100
17950;BME280;9100;48.700;9.316;2023-02-03T02:01:04;98949.2;;;6.31;100
17950;BME280;9100;48.700;9.316;2023-02-03T02:02:04;98951.8;;;6.31;100
17950;BME280;9100;48.700;9.316;2023-02-03T02:03:04;98956.8;;;6.31;100
17950;BME280;9100;48.700;9.316;2023-02-03T02:04:04;98964.3;;;6.32;100
17950;BME280;9100;48.700;9.316;2023-02-03T02:05:05;98960;;;6.33;100
17950;BME280;9100;48.700;9.316;2023-02-03T02:05:35;98955;;;6.33;100
17950;BME280;9100;48.700;9.316;2023-02-03T02:06:05;98953.2;;;6.33;100
17950;BME280;9100;48.700;9.316;2023-02-03T02:07:04;98952.4;;;6.33;100
17950;BME280;9100;48.700;9.316;2023-02-03T02:08:04;98951.5;;;6.34;100
17950;BME280;9100;48.700;9.316;2023-02-03T02:09:04;98951.5;;;6.34;100
17950;BME280;9100;48.700;9.316;2023-02-03T02:10:04;98949;;;6.34;100
17950;BME280;9100;48.700;9.316;2023-02-03T02:10:34;98945.9;;;6.3;100
17950;BME280;9100;48.700;9.316;2023-02-03T02:11:04;98949.90000000001;;;6.33;100
17950;BME280;9100;48.700;9.316;2023-02-03T02:12:04;98939.70000000001;;;6.33;100
17950;BME280;9100;48.700;9.316;2023-02-03T02:13:04;98942.3;;;6.33;100
17950;BME280;9100;48.700;9.316;2023-02-03T02:14:04;98934.1;;;6.29;100
17950;BME280;9100;48.700;9.316;2023-02-03T02:15:04;98933.3;;;6.29;100
17950;BME280;9100;48.700;9.316;2023-02-03T02:15:38;98932.4;;;6.3;100
17950;BME280;9100;48.700;9.316;2023-02-03T02:16:05;98927.3;;;6.3;100
17950;BME280;9100;48.700;9.316;2023-02-03T02:17:04;98924.90000000001;;;6.28;100
17950;BME280;9100;48.700;9.316;2023-02-03T02:18:07;98928.09999999999;;;6.3;100
17950;BME280;9100;48.700;9.316;2023-02-03T02:19:08;98929.8;;;6.3;100
17950;BME280;9100;48.700;9.316;2023-02-03T02:20:10;98924.90000000001;;;6.28;100
17950;BME280;9100;48.700;9.316;2023-02-03T02:20:56;98925.7;;;6.29;100
17950;BME280;9100;48.700;9.316;2023-02-03T02:21:17;98925.8;;;6.27;100
17950;BME280;9100;48.700;9.316;2023-02-03T02:22:05;98914.59999999999;;;6.3;100
17950;BME280;9100;48.700;9.316;2023-02-03T02:24:11;98898;;;6.26;100
17950;BME280;9100;48.700;9.316;2023-02-03T02:25:25;98893.7;;;6.26;100
17950;BME280;9100;48.700;9.316;2023-02-03T02:25:46;98892.2;;;6.24;100
17950;BME280;9100;48.700;9.316;2023-02-03T02:26:10;98878.59999999999;;;6.25;100
17950;BME280;9100;48.700;9.316;2023-02-03T02:27:06;98880.4;;;6.23;100
17950;BME280;9100;48.700;9.316;2023-02-03T02:28:13;98874.5;;;6.22;100
17950;BME280;9100;48.700;9.316;2023-02-03T02:29:15;98861.2;;;6.2;100
17950;BME280;9100;48.700;9.316;2023-02-03T02:30:38;98866.4;;;6.19;100
17950;BME280;9100;48.700;9.316;2023-02-03T02:30:39;98871.40000000001;;;6.19;100
17950;BME280;9100;48.700;9.316;2023-02-03T02:31:10;98866.4;;;6.19;100
17950;BME280;9100;48.700;9.316;2023-02-03T02:32:05;98866.4;;;6.19;100
17950;BME280;9100;48.700;9.316;2023-02-03T02:33:08;98879.2;;;6.17;100
17950;BME280;9100;48.700;9.316;2023-02-03T02:34:05;98880.9;;;6.17;100
17950;BME280;9100;48.700;9.316;2023-02-03T02:35:05;98883.5;;;6.17;100
17950;BME280;9100;48.700;9.316;2023-02-03T02:35:38;98890.4;;;6.15;100
17950;BME280;9100;48.700;9.316;2023-02-03T02:36:06;98897.90000000001;;;6.16;100
17950;BME280;9100;48.700;9.316;2023-02-03T02:37:06;98894.5;;;6.16;100
17950;BME280;9100;48.700;9.316;2023-02-03T02:38:04;98897.1;;;6.16;100
17950;BME280;9100;48.700;9.316;2023-02-03T02:39:07;98892.9;;;6.15;100
17950;BME280;9100;48.700;9.316;2023-02-03T02:40:06;98894.5;;;6.16;100
17950;BME280;9100;48.700;9.316;2023-02-03T02:40:35;98888.8;;;6.14;100
17950;BME280;9100;48.700;9.316;2023-02-03T02:41:04;98890.4;;;6.15;100
17950;BME280;9100;48.700;9.316;2023-02-03T02:42:05;98882.8;;;6.15;100
17950;BME280;9100;48.700;9.316;2023-02-03T02:43:05;98887.7;;;6.16;100
17950;BME280;9100;48.700;9.316;2023-02-03T02:44:06;98875.09999999999;;;6.15;100
17950;BME280;9100;48.700;9.316;2023-02-03T02:45:05;98870.1;;;6.15;100
17950;BME280;9100;48.700;9.316;2023-02-03T02:45:38;98857.5;;;6.13;100
17950;BME280;9100;48.700;9.316;2023-02-03T02:46:05;98859.2;;;6.13;100
17950;BME280;9100;48.700;9.316;2023-02-03T02:47:05;98864.3;;;6.13;100
17950;BME280;9100;48.700;9.316;2023-02-03T02:48:05;98859.3;;;6.11;100
17950;BME280;9100;48.700;9.316;2023-02-03T02:49:05;98857.6;;;6.12;100
17950;BME280;9100;48.700;9.316;2023-02-03T02:50:05;98862.8;;;6.1;100
17950;BME280;9100;48.700;9.316;2023-02-03T02:50:37;98851.70000000001;;;6.11;100
17950;BME280;9100;48.700;9.316;2023-02-03T02:51:04;98853.5;;;6.11;100
17950;BME280;9100;48.700;9.316;2023-02-03T02:52:04;98847.6;;;6.1;100
17950;BME280;9100;48.700;9.316;2023-02-03T02:53:04;98832.7;;;6.06;100
17950;BME280;9100;48.700;9.316;2023-02-03T02:54:05;98830.2;;;6.06;100
17950;BME280;9100;48.700;9.316;2023-02-03T02:55:04;98832.7;;;6.06;100
17950;BME280;9100;48.700;9.316;2023-02-03T02:55:36;98837.8;;;6.06;100
17950;BME280;9100;48.700;9.316;2023-02-03T02:56:04;98850.5;;;6.06;100
17950;BME280;9100;48.700;9.316;2023-02-03T02:57:04;98855.6;;;6.06;100
17950;BME280;9100;48.700;9.316;2023-02-03T02:58:04;98875.9;;;6.06;100
17950;BME280;9100;48.700;9.316;2023-02-03T02:59:04;98885.2;;;6.05;100
17950;BME280;9100;48.700;9.316;2023-02-03T03:00:04;98884.40000000001;;;6.05;100
17950;BME280;9100;48.700;9.316;2023-02-03T03:00:35;98895.4;;;6.05;100
17950;BME280;9100;48.700;9.316;2023-02-03T03:01:04;98891.9;;;6.06;100
17950;BME280;9100;48.700;9.316;2023-02-03T03:02:04;98893.7;;;6.06;100
17950;BME280;9100;48.700;9.316;2023-02-03T03:03:06;98896.2;;;6.06;100
17950;BME280;9100;48.700;9.316;2023-02-03T03:04:04;98897.90000000001;;;6.05;100
17950;BME280;9100;48.700;9.316;2023-02-03T03:05:04;98909.79999999999;;;6.05;100
17950;BME280;9100;48.700;9.316;2023-02-03T03:05:36;98906.6;;;6.03;100
17950;BME280;9100;48.700;9.316;2023-02-03T03:06:04;98913.3;;;6.04;100
17950;BME280;9100;48.700;9.316;2023-02-03T03:07:05;98910.6;;;6.05;100
17950;BME280;9100;48.700;9.316;2023-02-03T03:08:04;98920.6;;;6.07;100
17950;BME280;9100;48.700;9.316;2023-02-03T03:09:04;98916.4;;;6.07;100
17950;BME280;9100;48.700;9.316;2023-02-03T03:10:04;98919.7;;;6.08;100
17950;BME280;9100;48.700;9.316;2023-02-03T03:10:34;98910.5;;;6.07;100
17950;BME280;9100;48.700;9.316;2023-02-03T03:11:04;98916.3;;;6.09;100
17950;BME280;9100;48.700;9.316;2023-02-03T03:12:05;98907.7;;;6.1;100
17950;BME280;9100;48.700;9.316;2023-02-03T03:13:04;98905;;;6.11;100
17950;BME280;9100;48.700;9.316;2023-02-03T03:14:04;98903.3;;;6.12;100
17950;BME280;9100;48.700;9.316;2023-02-03T03:15:04;98898.2;;;6.12;100
17950;BME280;9100;48.700;9.316;2023-02-03T03:15:34;98896.6;;;6.11;100
17950;BME280;9100;48.700;9.316;2023-02-03T03:16:04;98887.2;;;6.13;100
17950;BME280;9100;48.700;9.316;2023-02-03T03:17:05;98888.8;;;6.14;100
17950;BME280;9100;48.700;9.316;2023-02-03T03:18:04;98892.1;;;6.14;100
17950;BME280;9100;48.700;9.316;2023-02-03T03:19:04;98891.09999999999;;;6.17;100
17950;BME280;9100;48.700;9.316;2023-02-03T03:20:05;98898;;;6.15;100
17950;BME280;9100;48.700;9.316;2023-02-03T03:20:34;98898;;;6.15;100
17950;BME280;9100;48.700;9.316;2023-02-03T03:21:04;98892;;;6.16;100
17950;BME280;9100;48.700;9.316;2023-02-03T03:22:05;98896;;;6.18;100
17950;BME280;9100;48.700;9.316;2023-02-03T03:23:06;98890.09999999999;;;6.18;100
17950;BME280;9100;48.700;9.316;2023-02-03T03:24:04;98887.59999999999;;;6.18;100
17950;BME280;9100;48.700;9.316;2023-02-03T03:25:05;98890.09999999999;;;6.18;100
17950;BME280;9100;48.700;9.316;2023-02-03T03:25:36;98891.09999999999;;;6.17;100
17950;BME280;9100;48.700;9.316;2023-02-03T03:26:07;98896;;;6.18;100
17950;BME280;9100;48.700;9.316;2023-02-03T03:27:06;98884.1;;;6.19;100
17950;BME280;9100;48.700;9.316;2023-02-03T03:28:05;98871.40000000001;;;6.19;100
17950;BME280;9100;48.700;9.316;2023-02-03T03:29:06;98869.8;;;6.18;100
17950;BME280;9100;48.700;9.316;2023-02-03T03:30:04;98866.5;;;6.17;100
17950;BME280;9100;48.700;9.316;2023-02-03T03:30:35;98869;;;6.17;100
17950;BME280;9100;48.700;9.316;2023-02-03T03:31:04;98874.90000000001;;;6.18;100
17950;BME280;9100;48.700;9.316;2023-02-03T03:32:04;98869.8;;;6.18;100
17950;BME280;9100;48.700;9.316;2023-02-03T03:33:04;98869.8;;;6.18;100
17950;BME280;9100;48.700;9.316;2023-02-03T03:34:04;98870.6;;;6.18;100
17950;BME280;9100;48.700;9.316;2023-02-03T03:35:04;98884.1;;;6.19;100
17950;BME280;9100;48.700;9.316;2023-02-03T03:35:36;98887.5;;;6.19;100
17950;BME280;9100;48.700;9.316;2023-02-03T03:36:06;98889.09999999999;;;6.2;100
17950;BME280;9100;48.700;9.316;2023-02-03T03:37:05;98886.6;;;6.2;100
17950;BME280;9100;48.700;9.316;2023-02-03T03:38:05;98883.2;;;6.2;100
17950;BME280;9100;48.700;9.316;2023-02-03T03:39:04;98901.70000000001;;;6.22;100
17950;BME280;9100;48.700;9.316;2023-02-03T03:40:06;98895.8;;;6.21;100
17950;BME280;9100;48.700;9.316;2023-02-03T03:40:37;98906.1;;;6.2;100
17950;BME280;9100;48.700;9.316;2023-02-03T03:41:04;98911;;;6.21;100
17950;BME280;9100;48.700;9.316;2023-02-03T03:42:05;98911.8;;;6.22;100
17950;BME280;9100;48.700;9.316;2023-02-03T03:43:05;98905.2;;;6.21;100
17950;BME280;9100;48.700;9.316;2023-02-03T03:44:04;98911.8;;;6.22;100
17950;BME280;9100;48.700;9.316;2023-02-03T03:45:04;98919.4;;;6.22;100
17950;BME280;9100;48.700;9.316;2023-02-03T03:45:36;98915.3;;;6.21;100
17950;BME280;9100;48.700;9.316;2023-02-03T03:46:05;98917.7;;;6.22;100
17950;BME280;9100;48.700;9.316;2023-02-03T03:47:07;98923.6;;;6.23;100
17950;BME280;9100;48.700;9.316;2023-02-03T03:48:04;98921.8;;;6.25;100
17950;BME280;9100;48.700;9.316;2023-02-03T03:49:04;98921.8;;;6.25;100
17950;BME280;9100;48.700;9.316;2023-02-03T03:50:04;98927.09999999999;;;6.22;100
17950;BME280;9100;48.700;9.316;2023-02-03T03:50:36;98923.6;;;6.23;100
17950;BME280;9100;48.700;9.316;2023-02-03T03:51:05;98931.2;;;6.23;100
17950;BME280;9100;48.700;9.316;2023-02-03T03:52:05;98933;;;6.22;100
17950;BME280;9100;48.700;9.316;2023-02-03T03:53:04;98934.6;;;6.23;100
17950;BME280;9100;48.700;9.316;2023-02-03T03:54:04;98933.7;;;6.24;100
17950;BME280;9100;48.700;9.316;2023-02-03T03:55:05;98933.8;;;6.23;100
17950;BME280;9100;48.700;9.316;2023-02-03T03:55:35;98940.59999999999;;;6.22;100
17950;BME280;9100;48.700;9.316;2023-02-03T03:56:05;98939.70000000001;;;6.23;100
17950;BME280;9100;48.700;9.316;2023-02-03T03:57:04;98938.8;;;6.23;100
17950;BME280;9100;48.700;9.316;2023-02-03T03:58:05;98945.8;;;6.21;100
17950;BME280;9100;48.700;9.316;2023-02-03T03:59:04;98947.5;;;6.2;100
17950;BME280;9100;48.700;9.316;2023-02-03T04:00:05;98950.2;;;6.19;100
17950;BME280;9100;48.700;9.316;2023-02-03T04:00:35;98951.8;;;6.2;100
17950;BME280;9100;48.700;9.316;2023-02-03T04:01:04;98954.4;;;6.18;100
17950;BME280;9100;48.700;9.316;2023-02-03T04:02:04;98950.09999999999;;;6.2;100
17950;BME280;9100;48.700;9.316;2023-02-03T04:03:05;98961;;;6.21;100
17950;BME280;9100;48.700;9.316;2023-02-03T04:04:04;98955.9;;;6.21;100
17950;BME280;9100;48.700;9.316;2023-02-03T04:05:04;98955.9;;;6.21;100
17950;BME280;9100;48.700;9.316;2023-02-03T04:05:34;98960.2;;;6.2;100
17950;BME280;9100;48.700;9.316;2023-02-03T04:06:04;98962.59999999999;;;6.22;100
17950;BME280;9100;48.700;9.316;2023-02-03T04:07:04;98956.8;;;6.21;100
17950;BME280;9100;48.700;9.316;2023-02-03T04:08:04;98962.8;;;6.2;100
17950;BME280;9100;48.700;9.316;2023-02-03T04:09:04;98962.59999999999;;;6.22;100
17950;BME280;9100;48.700;9.316;2023-02-03T04:10:04;98976.3;;;6.21;100
17950;BME280;9100;48.700;9.316;2023-02-03T04:10:35;98977.9;;;6.22;100
17950;BME280;9100;48.700;9.316;2023-02-03T04:11:04;98972.1;;;6.2;100
17950;BME280;9100;48.700;9.316;2023-02-03T04:12:04;98980.3;;;6.23;100
17950;BME280;9100;48.700;9.316;2023-02-03T04:13:04;98970;;;6.25;100
17950;BME280;9100;48.700;9.316;2023-02-03T04:14:04;98965.9;;;6.24;100
17950;BME280;9100;48.700;9.316;2023-02-03T04:15:04;98965.09999999999;;;6.23;100
17950;BME280;9100;48.700;9.316;2023-02-03T04:15:34;98965.9;;;6.24;100
17950;BME280;9100;48.700;9.316;2023-02-03T04:16:04;98963.4;;;6.22;100
17950;BME280;9100;48.700;9.316;2023-02-03T04:17:04;98968.5;;;6.22;100
17950;BME280;9100;48.700;9.316;2023-02-03T04:18:04;98963.4;;;6.22;100
17950;BME280;9100;48.700;9.316;2023-02-03T04:19:04;98966.9;;;6.21;100
17950;BME280;9100;48.700;9.316;2023-02-03T04:20:04;98960.2;;;6.2;100
17950;BME280;9100;48.700;9.316;2023-02-03T04:20:34;98957.5;;;6.22;100
17950;BME280;9100;48.700;9.316;2023-02-03T04:21:04;98955.8;;;6.22;100
17950;BME280;9100;48.700;9.316;2023-02-03T04:22:04;98952.5;;;6.22;100
17950;BME280;9100;48.700;9.316;2023-02-03T04:23:04;98953.3;;;6.22;100
17950;BME280;9100;48.700;9.316;2023-02-03T04:24:04;98949.90000000001;;;6.22;100
17950;BME280;9100;48.700;9.316;2023-02-03T04:25:04;98948.2;;;6.22;100
17950;BME280;9100;48.700;9.316;2023-02-03T04:25:34;98947.29999999999;;;6.23;100
17950;BME280;9100;48.700;9.316;2023-02-03T04:26:04;98944.7;;;6.23;100
17950;BME280;9100;48.700;9.316;2023-02-03T04:27:04;98937.90000000001;;;6.24;100
17950;BME280;9100;48.700;9.316;2023-02-03T04:28:04;98932.8;;;6.24;100
17950;BME280;9100;48.700;9.316;2023-02-03T04:29:04;98934.7;;;6.22;100
17950;BME280;9100;48.700;9.316;2023-02-03T04:30:04;98936.40000000001;;;6.21;100
17950;BME280;9100;48.700;9.316;2023-02-03T04:30:34;98939.8;;;6.22;100
17950;BME280;9100;48.700;9.316;2023-02-03T04:31:04;98939.70000000001;;;6.23;100
17950;BME280;9100;48.700;9.316;2023-02-03T04:32:04;98935.40000000001;;;6.24;100
17950;BME280;9100;48.700;9.316;2023-02-03T04:33:04;98935.40000000001;;;6.24;100
17950;BME280;9100;48.700;9.316;2023-02-03T04:34:04;98933.8;;;6.23;100
17950;BME280;9100;48.700;9.316;2023-02-03T04:35:04;98930.5;;;6.21;100
17950;BME280;9100;48.700;9.316;2023-02-03T04:35:35;98936.40000000001;;;6.21;100
17950;BME280;9100;48.700;9.316;2023-02-03T04:36:04;98925.59999999999;;;6.19;100
17950;BME280;9100;48.700;9.316;2023-02-03T04:37:04;98928.8;;;6.21;100